sensor_id;sensor_type;location;lat;lon;timestamp;P1;durP1;ratioP1;P2;durP2;ratioP2
69989;SDS011;57331;52.054;5.294;2023-07-02T00:00:10;16.80;;;4.97;;
69989;SDS011;57331;52.054;5.294;2023-07-02T00:02:38;21.83;;;6.13;;
69989;SDS011;57331;52.054;5.294;2023-07-02T00:05:06;11.80;;;4.72;;
69989;SDS011;57331;52.054;5.294;2023-07-02T00:07:34;18.50;;;5.60;;
69989;SDS011;57331;52.054;5.294;2023-07-02T00:10:03;16.23;;;5.30;;
69989;SDS011;57331;52.054;5.294;2023-07-02T00:12:30;22.27;;;6.30;;
69989;SDS011;57331;52.054;5.294;2023-07-02T00:14:57;19.52;;;6.03;;
69989;SDS011;57331;52.054;5.294;2023-07-02T00:17:24;14.90;;;5.93;;
69989;SDS011;57331;52.054;5.294;2023-07-02T00:19:52;18.88;;;5.80;;
69989;SDS011;57331;52.054;5.294;2023-07-02T00:22:19;15.57;;;5.80;;
69989;SDS011;57331;52.054;5.294;2023-07-02T00:24:47;16.33;;;6.05;;
69989;SDS011;57331;52.054;5.294;2023-07-02T00:27:14;13.45;;;5.50;;
69989;SDS011;57331;52.054;5.294;2023-07-02T00:29:41;17.45;;;6.38;;
69989;SDS011;57331;52.054;5.294;2023-07-02T00:32:08;18.95;;;6.53;;
69989;SDS011;57331;52.054;5.294;2023-07-02T00:34:36;15.67;;;7.20;;
69989;SDS011;57331;52.054;5.294;2023-07-02T00:37:03;18.58;;;6.40;;
69989;SDS011;57331;52.054;5.294;2023-07-02T00:39:30;17.02;;;6.00;;
69989;SDS011;57331;52.054;5.294;2023-07-02T00:42:01;15.98;;;6.32;;
69989;SDS011;57331;52.054;5.294;2023-07-02T00:44:30;13.70;;;5.75;;
69989;SDS011;57331;52.054;5.294;2023-07-02T00:46:57;20.00;;;6.00;;
69989;SDS011;57331;52.054;5.294;2023-07-02T00:49:24;18.35;;;6.40;;
69989;SDS011;57331;52.054;5.294;2023-07-02T00:51:52;22.50;;;6.80;;
69989;SDS011;57331;52.054;5.294;2023-07-02T00:54:19;22.23;;;7.55;;
69989;SDS011;57331;52.054;5.294;2023-07-02T00:56:47;24.70;;;7.57;;
69989;SDS011;57331;52.054;5.294;2023-07-02T00:59:14;20.33;;;5.97;;
69989;SDS011;57331;52.054;5.294;2023-07-02T01:01:41;19.15;;;6.15;;
69989;SDS011;57331;52.054;5.294;2023-07-02T01:04:09;15.93;;;6.00;;
69989;SDS011;57331;52.054;5.294;2023-07-02T01:06:39;14.82;;;5.60;;
69989;SDS011;57331;52.054;5.294;2023-07-02T01:09:08;19.27;;;6.63;;
69989;SDS011;57331;52.054;5.294;2023-07-02T01:11:39;16.00;;;6.23;;
69989;SDS011;57331;52.054;5.294;2023-07-02T01:14:14;17.13;;;6.72;;
69989;SDS011;57331;52.054;5.294;2023-07-02T01:16:44;14.05;;;5.70;;
69989;SDS011;57331;52.054;5.294;2023-07-02T01:22:21;17.63;;;6.20;;
69989;SDS011;57331;52.054;5.294;2023-07-02T01:24:51;17.00;;;6.10;;
69989;SDS011;57331;52.054;5.294;2023-07-02T01:27:18;19.13;;;6.90;;
69989;SDS011;57331;52.054;5.294;2023-07-02T01:29:46;18.80;;;5.80;;
69989;SDS011;57331;52.054;5.294;2023-07-02T01:32:17;19.52;;;6.30;;
69989;SDS011;57331;52.054;5.294;2023-07-02T01:34:44;17.52;;;6.15;;
69989;SDS011;57331;52.054;5.294;2023-07-02T01:37:16;18.53;;;6.20;;
69989;SDS011;57331;52.054;5.294;2023-07-02T01:39:45;15.25;;;5.68;;
69989;SDS011;57331;52.054;5.294;2023-07-02T01:42:16;21.13;;;6.57;;
69989;SDS011;57331;52.054;5.294;2023-07-02T01:44:47;18.63;;;5.78;;
69989;SDS011;57331;52.054;5.294;2023-07-02T01:47:17;20.48;;;6.15;;
69989;SDS011;57331;52.054;5.294;2023-07-02T01:49:46;14.83;;;5.37;;
69989;SDS011;57331;52.054;5.294;2023-07-02T01:52:13;19.33;;;5.70;;
69989;SDS011;57331;52.054;5.294;2023-07-02T01:54:40;21.70;;;6.80;;
69989;SDS011;57331;52.054;5.294;2023-07-02T01:57:08;15.55;;;5.93;;
69989;SDS011;57331;52.054;5.294;2023-07-02T01:59:35;19.25;;;7.10;;
69989;SDS011;57331;52.054;5.294;2023-07-02T02:02:02;22.63;;;6.20;;
69989;SDS011;57331;52.054;5.294;2023-07-02T02:04:29;19.15;;;6.15;;
69989;SDS011;57331;52.054;5.294;2023-07-02T02:06:56;19.45;;;6.07;;
69989;SDS011;57331;52.054;5.294;2023-07-02T02:09:23;18.40;;;6.30;;
69989;SDS011;57331;52.054;5.294;2023-07-02T02:11:54;16.65;;;6.78;;
69989;SDS011;57331;52.054;5.294;2023-07-02T02:14:21;18.87;;;6.53;;
69989;SDS011;57331;52.054;5.294;2023-07-02T02:16:48;19.65;;;6.55;;
69989;SDS011;57331;52.054;5.294;2023-07-02T02:19:16;19.55;;;6.57;;
69989;SDS011;57331;52.054;5.294;2023-07-02T02:21:43;19.25;;;7.20;;
69989;SDS011;57331;52.054;5.294;2023-07-02T02:24:11;16.23;;;6.15;;
69989;SDS011;57331;52.054;5.294;2023-07-02T02:26:38;15.93;;;6.40;;
69989;SDS011;57331;52.054;5.294;2023-07-02T02:29:06;17.58;;;6.65;;
69989;SDS011;57331;52.054;5.294;2023-07-02T02:31:33;22.55;;;6.72;;
69989;SDS011;57331;52.054;5.294;2023-07-02T02:34:01;22.77;;;6.72;;
69989;SDS011;57331;52.054;5.294;2023-07-02T02:36:28;22.40;;;7.05;;
69989;SDS011;57331;52.054;5.294;2023-07-02T02:38:55;20.20;;;6.53;;
69989;SDS011;57331;52.054;5.294;2023-07-02T02:41:24;23.80;;;6.78;;
69989;SDS011;57331;52.054;5.294;2023-07-02T02:43:52;20.95;;;6.75;;
69989;SDS011;57331;52.054;5.294;2023-07-02T02:46:21;19.83;;;7.30;;
69989;SDS011;57331;52.054;5.294;2023-07-02T02:48:49;21.73;;;5.82;;
69989;SDS011;57331;52.054;5.294;2023-07-02T02:51:17;22.20;;;6.60;;
69989;SDS011;57331;52.054;5.294;2023-07-02T02:53:44;23.55;;;6.93;;
69989;SDS011;57331;52.054;5.294;2023-07-02T02:56:12;18.90;;;6.85;;
69989;SDS011;57331;52.054;5.294;2023-07-02T02:58:40;19.98;;;6.85;;
69989;SDS011;57331;52.054;5.294;2023-07-02T03:01:07;17.38;;;5.78;;
69989;SDS011;57331;52.054;5.294;2023-07-02T03:03:38;17.93;;;6.50;;
69989;SDS011;57331;52.054;5.294;2023-07-02T03:06:07;20.05;;;6.15;;
69989;SDS011;57331;52.054;5.294;2023-07-02T03:08:34;19.58;;;5.18;;
69989;SDS011;57331;52.054;5.294;2023-07-02T03:11:01;14.18;;;5.55;;
69989;SDS011;57331;52.054;5.294;2023-07-02T03:13:28;23.48;;;6.80;;
69989;SDS011;57331;52.054;5.294;2023-07-02T03:15:56;22.73;;;6.63;;
69989;SDS011;57331;52.054;5.294;2023-07-02T03:18:23;20.88;;;6.60;;
69989;SDS011;57331;52.054;5.294;2023-07-02T03:20:50;21.58;;;7.20;;
69989;SDS011;57331;52.054;5.294;2023-07-02T03:23:17;25.55;;;6.80;;
69989;SDS011;57331;52.054;5.294;2023-07-02T03:25:44;18.55;;;7.10;;
69989;SDS011;57331;52.054;5.294;2023-07-02T03:28:11;25.80;;;7.00;;
69989;SDS011;57331;52.054;5.294;2023-07-02T03:30:39;22.67;;;6.68;;
69989;SDS011;57331;52.054;5.294;2023-07-02T03:33:08;25.48;;;6.93;;
69989;SDS011;57331;52.054;5.294;2023-07-02T03:35:36;19.00;;;6.72;;
69989;SDS011;57331;52.054;5.294;2023-07-02T03:38:04;20.52;;;6.68;;
69989;SDS011;57331;52.054;5.294;2023-07-02T03:40:32;25.87;;;7.70;;
69989;SDS011;57331;52.054;5.294;2023-07-02T03:42:59;20.58;;;7.10;;
69989;SDS011;57331;52.054;5.294;2023-07-02T03:45:26;22.88;;;7.25;;
69989;SDS011;57331;52.054;5.294;2023-07-02T03:47:54;19.08;;;6.25;;
69989;SDS011;57331;52.054;5.294;2023-07-02T03:50:21;20.20;;;6.82;;
69989;SDS011;57331;52.054;5.294;2023-07-02T03:52:48;21.23;;;6.77;;
69989;SDS011;57331;52.054;5.294;2023-07-02T03:55:16;22.75;;;6.63;;
69989;SDS011;57331;52.054;5.294;2023-07-02T03:57:43;19.38;;;6.95;;
69989;SDS011;57331;52.054;5.294;2023-07-02T04:00:10;20.88;;;6.80;;
69989;SDS011;57331;52.054;5.294;2023-07-02T04:02:40;24.88;;;7.05;;
69989;SDS011;57331;52.054;5.294;2023-07-02T04:05:08;24.77;;;6.73;;
69989;SDS011;57331;52.054;5.294;2023-07-02T04:07:35;19.13;;;6.30;;
69989;SDS011;57331;52.054;5.294;2023-07-02T04:10:02;21.67;;;6.97;;
69989;SDS011;57331;52.054;5.294;2023-07-02T04:12:30;17.52;;;6.60;;
69989;SDS011;57331;52.054;5.294;2023-07-02T04:14:57;26.38;;;6.95;;
69989;SDS011;57331;52.054;5.294;2023-07-02T04:17:25;23.63;;;6.30;;
69989;SDS011;57331;52.054;5.294;2023-07-02T04:19:53;21.80;;;6.70;;
69989;SDS011;57331;52.054;5.294;2023-07-02T04:22:21;19.92;;;6.50;;
69989;SDS011;57331;52.054;5.294;2023-07-02T04:24:48;21.92;;;6.50;;
69989;SDS011;57331;52.054;5.294;2023-07-02T04:27:20;21.30;;;6.70;;
69989;SDS011;57331;52.054;5.294;2023-07-02T04:30:07;20.70;;;5.87;;
69989;SDS011;57331;52.054;5.294;2023-07-02T04:32:36;17.92;;;6.47;;
69989;SDS011;57331;52.054;5.294;2023-07-02T04:35:07;19.90;;;6.80;;
69989;SDS011;57331;52.054;5.294;2023-07-02T04:37:35;19.55;;;6.85;;
69989;SDS011;57331;52.054;5.294;2023-07-02T04:40:02;26.60;;;7.28;;
69989;SDS011;57331;52.054;5.294;2023-07-02T04:42:42;19.70;;;7.47;;
69989;SDS011;57331;52.054;5.294;2023-07-02T04:45:15;27.52;;;7.95;;
69989;SDS011;57331;52.054;5.294;2023-07-02T04:47:43;21.85;;;6.45;;
69989;SDS011;57331;52.054;5.294;2023-07-02T04:50:11;26.85;;;6.57;;
69989;SDS011;57331;52.054;5.294;2023-07-02T04:52:38;21.02;;;6.40;;
69989;SDS011;57331;52.054;5.294;2023-07-02T04:55:06;22.43;;;6.23;;
69989;SDS011;57331;52.054;5.294;2023-07-02T04:57:33;22.42;;;6.45;;
69989;SDS011;57331;52.054;5.294;2023-07-02T05:00:01;26.13;;;6.72;;
69989;SDS011;57331;52.054;5.294;2023-07-02T05:02:30;23.75;;;7.05;;
69989;SDS011;57331;52.054;5.294;2023-07-02T05:04:57;19.77;;;6.78;;
69989;SDS011;57331;52.054;5.294;2023-07-02T05:07:24;23.97;;;6.60;;
69989;SDS011;57331;52.054;5.294;2023-07-02T05:09:51;25.13;;;7.07;;
69989;SDS011;57331;52.054;5.294;2023-07-02T05:12:19;25.02;;;6.13;;
69989;SDS011;57331;52.054;5.294;2023-07-02T05:14:46;20.13;;;5.70;;
69989;SDS011;57331;52.054;5.294;2023-07-02T05:17:13;25.88;;;6.65;;
69989;SDS011;57331;52.054;5.294;2023-07-02T05:19:40;24.17;;;6.80;;
69989;SDS011;57331;52.054;5.294;2023-07-02T05:22:08;28.70;;;6.82;;
69989;SDS011;57331;52.054;5.294;2023-07-02T05:24:36;23.27;;;6.72;;
69989;SDS011;57331;52.054;5.294;2023-07-02T05:27:04;18.83;;;5.60;;
69989;SDS011;57331;52.054;5.294;2023-07-02T05:29:31;27.70;;;6.57;;
69989;SDS011;57331;52.054;5.294;2023-07-02T05:31:58;24.43;;;6.97;;
69989;SDS011;57331;52.054;5.294;2023-07-02T05:34:25;22.70;;;5.03;;
69989;SDS011;57331;52.054;5.294;2023-07-02T05:36:52;28.23;;;7.28;;
69989;SDS011;57331;52.054;5.294;2023-07-02T05:39:19;24.45;;;6.50;;
69989;SDS011;57331;52.054;5.294;2023-07-02T05:41:48;21.02;;;6.13;;
69989;SDS011;57331;52.054;5.294;2023-07-02T05:44:15;21.07;;;5.57;;
69989;SDS011;57331;52.054;5.294;2023-07-02T05:46:42;29.33;;;6.60;;
69989;SDS011;57331;52.054;5.294;2023-07-02T05:49:09;25.42;;;6.10;;
69989;SDS011;57331;52.054;5.294;2023-07-02T05:51:36;26.17;;;5.97;;
69989;SDS011;57331;52.054;5.294;2023-07-02T05:54:03;21.85;;;6.82;;
69989;SDS011;57331;52.054;5.294;2023-07-02T05:56:30;22.97;;;5.67;;
69989;SDS011;57331;52.054;5.294;2023-07-02T05:58:58;24.80;;;5.57;;
69989;SDS011;57331;52.054;5.294;2023-07-02T06:01:25;15.25;;;5.22;;
69989;SDS011;57331;52.054;5.294;2023-07-02T06:03:52;14.90;;;5.10;;
69989;SDS011;57331;52.054;5.294;2023-07-02T06:06:19;15.98;;;4.72;;
69989;SDS011;57331;52.054;5.294;2023-07-02T06:08:46;20.80;;;5.67;;
69989;SDS011;57331;52.054;5.294;2023-07-02T06:11:14;16.00;;;5.20;;
69989;SDS011;57331;52.054;5.294;2023-07-02T06:13:41;22.10;;;6.07;;
69989;SDS011;57331;52.054;5.294;2023-07-02T06:16:08;18.63;;;5.50;;
69989;SDS011;57331;52.054;5.294;2023-07-02T06:18:35;17.52;;;4.80;;
69989;SDS011;57331;52.054;5.294;2023-07-02T06:21:03;15.37;;;5.13;;
69989;SDS011;57331;52.054;5.294;2023-07-02T06:23:38;15.13;;;4.90;;
69989;SDS011;57331;52.054;5.294;2023-07-02T06:26:06;15.27;;;4.38;;
69989;SDS011;57331;52.054;5.294;2023-07-02T06:28:33;16.90;;;5.65;;
69989;SDS011;57331;52.054;5.294;2023-07-02T06:31:01;16.08;;;4.78;;
69989;SDS011;57331;52.054;5.294;2023-07-02T06:33:28;17.10;;;5.03;;
69989;SDS011;57331;52.054;5.294;2023-07-02T06:35:55;16.25;;;3.67;;
69989;SDS011;57331;52.054;5.294;2023-07-02T06:38:22;18.33;;;5.03;;
69989;SDS011;57331;52.054;5.294;2023-07-02T06:40:49;22.75;;;5.75;;
69989;SDS011;57331;52.054;5.294;2023-07-02T06:43:17;19.08;;;4.70;;
69989;SDS011;57331;52.054;5.294;2023-07-02T06:45:44;15.50;;;5.40;;
69989;SDS011;57331;52.054;5.294;2023-07-02T06:48:11;17.75;;;4.70;;
69989;SDS011;57331;52.054;5.294;2023-07-02T06:50:38;19.30;;;5.13;;
69989;SDS011;57331;52.054;5.294;2023-07-02T06:53:09;19.15;;;5.15;;
69989;SDS011;57331;52.054;5.294;2023-07-02T06:55:36;21.33;;;5.30;;
69989;SDS011;57331;52.054;5.294;2023-07-02T06:58:04;16.17;;;4.17;;
69989;SDS011;57331;52.054;5.294;2023-07-02T07:00:32;12.45;;;4.13;;
69989;SDS011;57331;52.054;5.294;2023-07-02T07:03:03;20.27;;;5.10;;
69989;SDS011;57331;52.054;5.294;2023-07-02T07:05:30;17.52;;;4.90;;
69989;SDS011;57331;52.054;5.294;2023-07-02T07:07:58;19.23;;;5.03;;
69989;SDS011;57331;52.054;5.294;2023-07-02T07:10:27;17.00;;;4.53;;
69989;SDS011;57331;52.054;5.294;2023-07-02T07:12:54;15.93;;;5.57;;
69989;SDS011;57331;52.054;5.294;2023-07-02T07:15:21;16.35;;;4.60;;
69989;SDS011;57331;52.054;5.294;2023-07-02T07:17:48;18.00;;;4.63;;
69989;SDS011;57331;52.054;5.294;2023-07-02T07:20:15;19.02;;;5.75;;
69989;SDS011;57331;52.054;5.294;2023-07-02T07:22:42;14.07;;;4.63;;
69989;SDS011;57331;52.054;5.294;2023-07-02T07:25:09;14.82;;;4.60;;
69989;SDS011;57331;52.054;5.294;2023-07-02T07:27:36;13.60;;;4.00;;
69989;SDS011;57331;52.054;5.294;2023-07-02T07:30:04;13.20;;;4.32;;
69989;SDS011;57331;52.054;5.294;2023-07-02T07:32:32;16.23;;;4.70;;
69989;SDS011;57331;52.054;5.294;2023-07-02T07:34:59;16.20;;;4.70;;
69989;SDS011;57331;52.054;5.294;2023-07-02T07:37:26;12.93;;;4.15;;
69989;SDS011;57331;52.054;5.294;2023-07-02T07:39:53;14.35;;;3.88;;
69989;SDS011;57331;52.054;5.294;2023-07-02T07:42:20;12.88;;;4.50;;
69989;SDS011;57331;52.054;5.294;2023-07-02T07:44:47;14.15;;;4.38;;
69989;SDS011;57331;52.054;5.294;2023-07-02T07:47:15;16.80;;;5.43;;
69989;SDS011;57331;52.054;5.294;2023-07-02T07:49:42;20.48;;;5.63;;
69989;SDS011;57331;52.054;5.294;2023-07-02T07:52:09;13.63;;;3.83;;
69989;SDS011;57331;52.054;5.294;2023-07-02T07:54:36;14.98;;;4.00;;
69989;SDS011;57331;52.054;5.294;2023-07-02T07:57:03;13.65;;;4.03;;
69989;SDS011;57331;52.054;5.294;2023-07-02T07:59:31;16.63;;;4.63;;
69989;SDS011;57331;52.054;5.294;2023-07-02T08:01:58;14.43;;;4.28;;
69989;SDS011;57331;52.054;5.294;2023-07-02T08:04:25;19.05;;;5.35;;
69989;SDS011;57331;52.054;5.294;2023-07-02T08:06:52;12.55;;;3.92;;
69989;SDS011;57331;52.054;5.294;2023-07-02T08:09:21;11.75;;;4.05;;
69989;SDS011;57331;52.054;5.294;2023-07-02T08:11:48;14.60;;;3.87;;
69989;SDS011;57331;52.054;5.294;2023-07-02T08:14:16;13.40;;;4.68;;
69989;SDS011;57331;52.054;5.294;2023-07-02T08:16:44;14.30;;;4.60;;
69989;SDS011;57331;52.054;5.294;2023-07-02T08:19:11;18.60;;;5.40;;
69989;SDS011;57331;52.054;5.294;2023-07-02T08:21:38;11.75;;;4.03;;
69989;SDS011;57331;52.054;5.294;2023-07-02T08:24:05;11.80;;;3.63;;
69989;SDS011;57331;52.054;5.294;2023-07-02T08:26:32;13.60;;;3.67;;
69989;SDS011;57331;52.054;5.294;2023-07-02T08:29:00;17.48;;;4.13;;
69989;SDS011;57331;52.054;5.294;2023-07-02T08:31:27;14.18;;;4.05;;
69989;SDS011;57331;52.054;5.294;2023-07-02T08:33:54;17.48;;;4.10;;
69989;SDS011;57331;52.054;5.294;2023-07-02T08:36:21;12.90;;;4.03;;
69989;SDS011;57331;52.054;5.294;2023-07-02T08:38:48;14.52;;;4.07;;
69989;SDS011;57331;52.054;5.294;2023-07-02T08:41:15;16.00;;;4.78;;
69989;SDS011;57331;52.054;5.294;2023-07-02T08:43:43;14.88;;;3.88;;
69989;SDS011;57331;52.054;5.294;2023-07-02T08:46:11;14.43;;;3.80;;
69989;SDS011;57331;52.054;5.294;2023-07-02T08:48:38;10.50;;;3.73;;
69989;SDS011;57331;52.054;5.294;2023-07-02T08:51:06;12.93;;;4.05;;
69989;SDS011;57331;52.054;5.294;2023-07-02T08:53:33;12.57;;;3.97;;
69989;SDS011;57331;52.054;5.294;2023-07-02T08:56:01;10.10;;;3.63;;
69989;SDS011;57331;52.054;5.294;2023-07-02T08:58:29;9.38;;;3.92;;
69989;SDS011;57331;52.054;5.294;2023-07-02T09:01:09;10.57;;;3.60;;
69989;SDS011;57331;52.054;5.294;2023-07-02T09:03:40;10.77;;;3.72;;
69989;SDS011;57331;52.054;5.294;2023-07-02T09:06:08;11.05;;;3.78;;
69989;SDS011;57331;52.054;5.294;2023-07-02T09:08:37;13.18;;;4.10;;
69989;SDS011;57331;52.054;5.294;2023-07-02T09:11:05;11.85;;;4.00;;
69989;SDS011;57331;52.054;5.294;2023-07-02T09:13:51;10.43;;;3.40;;
69989;SDS011;57331;52.054;5.294;2023-07-02T09:16:25;13.63;;;3.90;;
69989;SDS011;57331;52.054;5.294;2023-07-02T09:18:56;11.25;;;4.25;;
69989;SDS011;57331;52.054;5.294;2023-07-02T09:21:27;9.55;;;3.28;;
69989;SDS011;57331;52.054;5.294;2023-07-02T09:24:21;7.50;;;2.58;;
69989;SDS011;57331;52.054;5.294;2023-07-02T09:26:49;10.23;;;3.77;;
69989;SDS011;57331;52.054;5.294;2023-07-02T09:29:29;8.02;;;3.13;;
69989;SDS011;57331;52.054;5.294;2023-07-02T09:31:58;9.13;;;3.10;;
69989;SDS011;57331;52.054;5.294;2023-07-02T09:34:37;11.38;;;3.10;;
69989;SDS011;57331;52.054;5.294;2023-07-02T09:37:07;12.57;;;3.30;;
69989;SDS011;57331;52.054;5.294;2023-07-02T09:39:35;9.67;;;3.00;;
69989;SDS011;57331;52.054;5.294;2023-07-02T09:42:05;7.70;;;2.67;;
69989;SDS011;57331;52.054;5.294;2023-07-02T09:44:33;10.32;;;3.33;;
69989;SDS011;57331;52.054;5.294;2023-07-02T09:49:31;9.20;;;3.08;;
69989;SDS011;57331;52.054;5.294;2023-07-02T09:52:18;9.07;;;2.90;;
69989;SDS011;57331;52.054;5.294;2023-07-02T09:54:46;8.75;;;3.20;;
69989;SDS011;57331;52.054;5.294;2023-07-02T09:57:13;8.63;;;2.75;;
69989;SDS011;57331;52.054;5.294;2023-07-02T09:59:41;8.35;;;3.10;;
69989;SDS011;57331;52.054;5.294;2023-07-02T10:02:09;7.40;;;3.05;;
69989;SDS011;57331;52.054;5.294;2023-07-02T10:04:41;10.80;;;3.53;;
69989;SDS011;57331;52.054;5.294;2023-07-02T10:07:13;8.55;;;2.70;;
69989;SDS011;57331;52.054;5.294;2023-07-02T10:09:52;9.43;;;3.47;;
69989;SDS011;57331;52.054;5.294;2023-07-02T10:12:20;9.77;;;3.17;;
69989;SDS011;57331;52.054;5.294;2023-07-02T10:14:51;8.32;;;3.40;;
69989;SDS011;57331;52.054;5.294;2023-07-02T10:20:01;8.95;;;2.72;;
69989;SDS011;57331;52.054;5.294;2023-07-02T10:22:45;8.10;;;3.00;;
69989;SDS011;57331;52.054;5.294;2023-07-02T10:25:32;8.15;;;2.88;;
69989;SDS011;57331;52.054;5.294;2023-07-02T10:28:01;7.70;;;2.80;;
69989;SDS011;57331;52.054;5.294;2023-07-02T10:30:39;9.40;;;3.23;;
69989;SDS011;57331;52.054;5.294;2023-07-02T10:33:16;13.48;;;3.17;;
69989;SDS011;57331;52.054;5.294;2023-07-02T10:35:45;7.72;;;3.00;;
69989;SDS011;57331;52.054;5.294;2023-07-02T10:38:20;7.43;;;2.63;;
69989;SDS011;57331;52.054;5.294;2023-07-02T10:40:57;9.15;;;3.13;;
69989;SDS011;57331;52.054;5.294;2023-07-02T10:43:29;8.63;;;2.90;;
69989;SDS011;57331;52.054;5.294;2023-07-02T10:45:57;7.82;;;3.00;;
69989;SDS011;57331;52.054;5.294;2023-07-02T10:48:29;12.43;;;3.28;;
69989;SDS011;57331;52.054;5.294;2023-07-02T10:50:57;6.72;;;3.05;;
69989;SDS011;57331;52.054;5.294;2023-07-02T10:53:24;9.02;;;3.55;;
69989;SDS011;57331;52.054;5.294;2023-07-02T10:55:53;9.20;;;3.37;;
69989;SDS011;57331;52.054;5.294;2023-07-02T10:58:23;15.32;;;3.33;;
69989;SDS011;57331;52.054;5.294;2023-07-02T11:00:51;9.27;;;3.13;;
69989;SDS011;57331;52.054;5.294;2023-07-02T11:03:19;8.65;;;3.33;;
69989;SDS011;57331;52.054;5.294;2023-07-02T11:05:48;11.48;;;3.70;;
69989;SDS011;57331;52.054;5.294;2023-07-02T11:08:16;11.03;;;3.70;;
69989;SDS011;57331;52.054;5.294;2023-07-02T11:10:44;15.45;;;3.45;;
69989;SDS011;57331;52.054;5.294;2023-07-02T11:13:14;11.52;;;3.92;;
69989;SDS011;57331;52.054;5.294;2023-07-02T11:15:45;9.73;;;2.97;;
69989;SDS011;57331;52.054;5.294;2023-07-02T11:18:15;10.27;;;2.90;;
69989;SDS011;57331;52.054;5.294;2023-07-02T11:20:45;7.87;;;2.63;;
69989;SDS011;57331;52.054;5.294;2023-07-02T11:23:23;9.57;;;3.35;;
69989;SDS011;57331;52.054;5.294;2023-07-02T11:26:01;10.38;;;3.30;;
69989;SDS011;57331;52.054;5.294;2023-07-02T11:28:30;7.70;;;2.92;;
69989;SDS011;57331;52.054;5.294;2023-07-02T11:30:58;15.18;;;3.63;;
69989;SDS011;57331;52.054;5.294;2023-07-02T11:33:59;9.93;;;3.43;;
69989;SDS011;57331;52.054;5.294;2023-07-02T11:36:19;11.00;;;3.30;;
69989;SDS011;57331;52.054;5.294;2023-07-02T11:38:50;8.75;;;3.30;;
69989;SDS011;57331;52.054;5.294;2023-07-02T11:41:18;11.27;;;3.50;;
69989;SDS011;57331;52.054;5.294;2023-07-02T11:43:47;8.65;;;2.72;;
69989;SDS011;57331;52.054;5.294;2023-07-02T11:46:15;9.00;;;3.17;;
69989;SDS011;57331;52.054;5.294;2023-07-02T11:48:42;10.68;;;3.40;;
69989;SDS011;57331;52.054;5.294;2023-07-02T11:51:09;8.10;;;2.95;;
69989;SDS011;57331;52.054;5.294;2023-07-02T11:53:36;10.90;;;3.38;;
69989;SDS011;57331;52.054;5.294;2023-07-02T11:56:05;12.38;;;3.58;;
69989;SDS011;57331;52.054;5.294;2023-07-02T11:58:32;11.63;;;3.53;;
69989;SDS011;57331;52.054;5.294;2023-07-02T12:01:00;9.63;;;2.72;;
69989;SDS011;57331;52.054;5.294;2023-07-02T12:03:27;9.68;;;3.45;;
69989;SDS011;57331;52.054;5.294;2023-07-02T12:05:54;9.05;;;3.50;;
69989;SDS011;57331;52.054;5.294;2023-07-02T12:08:22;11.75;;;3.80;;
69989;SDS011;57331;52.054;5.294;2023-07-02T12:10:49;9.77;;;3.73;;
69989;SDS011;57331;52.054;5.294;2023-07-02T12:13:16;11.07;;;3.42;;
69989;SDS011;57331;52.054;5.294;2023-07-02T12:15:43;12.73;;;3.80;;
69989;SDS011;57331;52.054;5.294;2023-07-02T12:18:11;9.15;;;3.42;;
69989;SDS011;57331;52.054;5.294;2023-07-02T12:20:39;10.13;;;3.22;;
69989;SDS011;57331;52.054;5.294;2023-07-02T12:23:06;11.97;;;3.60;;
69989;SDS011;57331;52.054;5.294;2023-07-02T12:25:33;11.23;;;3.42;;
69989;SDS011;57331;52.054;5.294;2023-07-02T12:28:01;10.88;;;3.83;;
69989;SDS011;57331;52.054;5.294;2023-07-02T12:30:32;11.15;;;3.83;;
69989;SDS011;57331;52.054;5.294;2023-07-02T12:32:59;10.82;;;3.90;;
69989;SDS011;57331;52.054;5.294;2023-07-02T12:35:27;8.90;;;3.23;;
69989;SDS011;57331;52.054;5.294;2023-07-02T12:37:53;12.80;;;3.47;;
69989;SDS011;57331;52.054;5.294;2023-07-02T12:40:20;9.73;;;4.05;;
69989;SDS011;57331;52.054;5.294;2023-07-02T12:42:48;8.68;;;3.47;;
69989;SDS011;57331;52.054;5.294;2023-07-02T12:45:18;11.18;;;3.22;;
69989;SDS011;57331;52.054;5.294;2023-07-02T12:47:47;11.67;;;3.70;;
69989;SDS011;57331;52.054;5.294;2023-07-02T12:50:15;9.52;;;3.85;;
69989;SDS011;57331;52.054;5.294;2023-07-02T12:52:41;10.68;;;3.60;;
69989;SDS011;57331;52.054;5.294;2023-07-02T12:55:09;9.95;;;3.78;;
69989;SDS011;57331;52.054;5.294;2023-07-02T12:57:36;11.57;;;3.45;;
69989;SDS011;57331;52.054;5.294;2023-07-02T13:00:03;13.83;;;4.10;;
69989;SDS011;57331;52.054;5.294;2023-07-02T13:02:32;15.85;;;4.10;;
69989;SDS011;57331;52.054;5.294;2023-07-02T13:05:12;9.30;;;4.40;;
69989;SDS011;57331;52.054;5.294;2023-07-02T13:07:39;9.82;;;4.05;;
69989;SDS011;57331;52.054;5.294;2023-07-02T13:10:07;10.35;;;3.42;;
69989;SDS011;57331;52.054;5.294;2023-07-02T13:12:34;11.53;;;3.93;;
69989;SDS011;57331;52.054;5.294;2023-07-02T13:15:01;9.93;;;3.78;;
69989;SDS011;57331;52.054;5.294;2023-07-02T13:17:28;10.93;;;4.22;;
69989;SDS011;57331;52.054;5.294;2023-07-02T13:19:55;8.95;;;3.35;;
69989;SDS011;57331;52.054;5.294;2023-07-02T13:22:23;8.45;;;3.60;;
69989;SDS011;57331;52.054;5.294;2023-07-02T13:24:50;11.00;;;3.97;;
69989;SDS011;57331;52.054;5.294;2023-07-02T13:27:17;8.35;;;3.60;;
69989;SDS011;57331;52.054;5.294;2023-07-02T13:29:45;11.57;;;3.80;;
69989;SDS011;57331;52.054;5.294;2023-07-02T13:32:12;10.38;;;3.65;;
69989;SDS011;57331;52.054;5.294;2023-07-02T13:34:39;10.50;;;4.10;;
69989;SDS011;57331;52.054;5.294;2023-07-02T13:37:06;13.17;;;4.20;;
69989;SDS011;57331;52.054;5.294;2023-07-02T13:39:35;11.27;;;3.88;;
69989;SDS011;57331;52.054;5.294;2023-07-02T13:42:02;9.25;;;3.78;;
69989;SDS011;57331;52.054;5.294;2023-07-02T13:44:29;11.05;;;3.97;;
69989;SDS011;57331;52.054;5.294;2023-07-02T13:46:56;10.65;;;4.10;;
69989;SDS011;57331;52.054;5.294;2023-07-02T13:49:23;10.93;;;4.00;;
69989;SDS011;57331;52.054;5.294;2023-07-02T13:51:50;10.30;;;3.92;;
69989;SDS011;57331;52.054;5.294;2023-07-02T13:54:17;9.65;;;3.92;;
69989;SDS011;57331;52.054;5.294;2023-07-02T13:56:46;9.95;;;3.47;;
69989;SDS011;57331;52.054;5.294;2023-07-02T13:59:16;12.02;;;3.97;;
69989;SDS011;57331;52.054;5.294;2023-07-02T14:01:44;13.53;;;4.10;;
69989;SDS011;57331;52.054;5.294;2023-07-02T14:04:12;12.63;;;3.90;;
69989;SDS011;57331;52.054;5.294;2023-07-02T14:06:39;10.38;;;3.97;;
69989;SDS011;57331;52.054;5.294;2023-07-02T14:09:07;12.27;;;3.90;;
69989;SDS011;57331;52.054;5.294;2023-07-02T14:11:35;10.70;;;3.85;;
69989;SDS011;57331;52.054;5.294;2023-07-02T14:14:03;8.70;;;3.53;;
69989;SDS011;57331;52.054;5.294;2023-07-02T14:16:32;12.48;;;4.00;;
69989;SDS011;57331;52.054;5.294;2023-07-02T14:18:59;12.20;;;4.30;;
69989;SDS011;57331;52.054;5.294;2023-07-02T14:21:26;9.90;;;3.78;;
69989;SDS011;57331;52.054;5.294;2023-07-02T14:23:53;13.77;;;4.28;;
69989;SDS011;57331;52.054;5.294;2023-07-02T14:26:20;9.63;;;3.83;;
69989;SDS011;57331;52.054;5.294;2023-07-02T14:28:47;10.25;;;4.30;;
69989;SDS011;57331;52.054;5.294;2023-07-02T14:31:14;11.43;;;3.90;;
69989;SDS011;57331;52.054;5.294;2023-07-02T14:33:41;9.63;;;3.90;;
69989;SDS011;57331;52.054;5.294;2023-07-02T14:36:08;14.00;;;4.40;;
69989;SDS011;57331;52.054;5.294;2023-07-02T14:38:35;12.07;;;3.87;;
69989;SDS011;57331;52.054;5.294;2023-07-02T14:41:02;9.27;;;3.38;;
69989;SDS011;57331;52.054;5.294;2023-07-02T14:43:30;11.45;;;4.10;;
69989;SDS011;57331;52.054;5.294;2023-07-02T14:45:58;12.43;;;4.30;;
69989;SDS011;57331;52.054;5.294;2023-07-02T14:48:27;12.07;;;4.22;;
69989;SDS011;57331;52.054;5.294;2023-07-02T14:50:58;10.30;;;4.00;;